createdAt,value
2018-04-23T00:00:35.144Z,1015.55
2018-04-23T00:01:35.156Z,1015.54
2018-04-23T00:02:35.207Z,1015.53
2018-04-23T00:03:35.145Z,1015.56
2018-04-23T00:04:35.221Z,1015.55
2018-04-23T00:05:35.150Z,1015.57
2018-04-23T00:06:35.154Z,1015.57
2018-04-23T00:07:35.322Z,1015.57
2018-04-23T00:08:35.117Z,1015.57
2018-04-23T00:09:35.143Z,1015.55
2018-04-23T00:10:35.150Z,1015.54
2018-04-23T00:11:35.140Z,1015.53
2018-04-23T00:12:35.143Z,1015.53
2018-04-23T00:13:35.137Z,1015.48
2018-04-23T00:14:35.229Z,1015.54
2018-04-23T00:15:35.158Z,1015.5
2018-04-23T00:16:35.179Z,1015.56
2018-04-23T00:17:35.155Z,1015.54
2018-04-23T00:18:35.171Z,1015.51
2018-04-23T00:19:35.141Z,1015.53
2018-04-23T00:20:35.129Z,1015.54
2018-04-23T00:21:35.140Z,1015.52
2018-04-23T00:22:35.165Z,1015.52
2018-04-23T00:23:35.299Z,1015.54
2018-04-23T00:24:35.133Z,1015.52
2018-04-23T00:25:35.116Z,1015.53
2018-04-23T00:26:35.180Z,1015.51
2018-04-23T00:27:35.133Z,1015.48
2018-04-23T00:28:35.157Z,1015.5
2018-04-23T00:29:35.137Z,1015.52
2018-04-23T00:30:35.137Z,1015.5
2018-04-23T00:31:35.155Z,1015.53
2018-04-23T00:32:35.173Z,1015.54
2018-04-23T00:33:35.138Z,1015.51
2018-04-23T00:34:35.178Z,1015.49
2018-04-23T00:35:35.121Z,1015.47
2018-04-23T00:36:35.131Z,1015.47
2018-04-23T00:37:35.139Z,1015.49
2018-04-23T00:38:35.139Z,1015.48
2018-04-23T00:39:35.158Z,1015.46
2018-04-23T00:40:35.150Z,1015.45
2018-04-23T00:41:35.127Z,1015.44
2018-04-23T00:42:35.126Z,1015.47
2018-04-23T00:43:35.391Z,1015.45
2018-04-23T00:44:35.129Z,1015.43
2018-04-23T00:45:35.135Z,1015.45
2018-04-23T00:46:35.133Z,1015.41
2018-04-23T00:47:35.151Z,1015.45
2018-04-23T00:48:35.148Z,1015.45
2018-04-23T00:49:35.156Z,1015.44
2018-04-23T00:50:35.131Z,1015.44
2018-04-23T00:51:35.126Z,1015.45
2018-04-23T00:52:35.121Z,1015.45
2018-04-23T00:53:35.121Z,1015.41
2018-04-23T00:54:35.123Z,1015.45
2018-04-23T00:55:35.161Z,1015.41
2018-04-23T00:56:35.259Z,1015.4
2018-04-23T00:57:35.117Z,1015.4
2018-04-23T00:58:35.126Z,1015.39
2018-04-23T00:59:35.130Z,1015.42
2018-04-23T01:00:35.138Z,1015.39
2018-04-23T01:01:35.119Z,1015.4
2018-04-23T01:02:35.116Z,1015.41
2018-04-23T01:03:35.453Z,1015.44
2018-04-23T01:04:35.289Z,1015.44
2018-04-23T01:05:35.133Z,1015.39
2018-04-23T01:06:35.114Z,1015.41
2018-04-23T01:07:35.105Z,1015.42
2018-04-23T01:08:35.150Z,1015.44
2018-04-23T01:09:35.135Z,1015.44
2018-04-23T01:10:35.270Z,1015.41
2018-04-23T01:11:35.139Z,1015.42
2018-04-23T01:12:35.115Z,1015.43
2018-04-23T01:13:35.147Z,1015.42
2018-04-23T01:14:35.131Z,1015.46
2018-04-23T01:15:35.126Z,1015.46
2018-04-23T01:16:35.141Z,1015.49
2018-04-23T01:17:35.134Z,1015.49
2018-04-23T01:18:35.132Z,1015.49
2018-04-23T01:19:35.146Z,1015.51
2018-04-23T01:20:35.108Z,1015.5
2018-04-23T01:21:35.142Z,1015.48
2018-04-23T01:22:35.118Z,1015.49
2018-04-23T01:23:35.187Z,1015.49
2018-04-23T01:24:35.147Z,1015.51
2018-04-23T01:25:35.108Z,1015.5
2018-04-23T01:26:35.108Z,1015.52
2018-04-23T01:27:35.113Z,1015.55
2018-04-23T01:28:35.117Z,1015.53
2018-04-23T01:29:35.116Z,1015.53
2018-04-23T01:30:35.121Z,1015.53
2018-04-23T01:31:35.108Z,1015.58
2018-04-23T01:32:35.137Z,1015.59
2018-04-23T01:33:35.106Z,1015.59
2018-04-23T01:34:35.159Z,1015.57
2018-04-23T01:35:35.109Z,1015.61
2018-04-23T01:36:35.092Z,1015.6
2018-04-23T01:37:35.133Z,1015.62
2018-04-23T01:38:35.188Z,1015.62
2018-04-23T01:39:35.149Z,1015.62
2018-04-23T01:40:35.121Z,1015.58
2018-04-23T01:41:35.159Z,1015.57
2018-04-23T01:42:35.156Z,1015.57
2018-04-23T01:43:35.127Z,1015.56
2018-04-23T01:44:35.127Z,1015.57
2018-04-23T01:45:35.116Z,1015.59
2018-04-23T01:46:35.114Z,1015.61
2018-04-23T01:47:35.087Z,1015.59
2018-04-23T01:48:35.105Z,1015.62
2018-04-23T01:49:35.113Z,1015.66
2018-04-23T01:50:35.119Z,1015.65
2018-04-23T01:51:35.114Z,1015.63
2018-04-23T01:52:35.102Z,1015.64
2018-04-23T01:53:35.109Z,1015.71
2018-04-23T01:54:35.147Z,1015.71
2018-04-23T01:55:35.104Z,1015.71
2018-04-23T01:56:35.117Z,1015.73
2018-04-23T01:57:35.110Z,1015.76
2018-04-23T01:58:35.151Z,1015.74
2018-04-23T01:59:35.108Z,1015.78
2018-04-23T02:00:35.099Z,1015.75
2018-04-23T02:01:35.153Z,1015.8
2018-04-23T02:02:35.116Z,1015.79
2018-04-23T02:03:35.095Z,1015.81
2018-04-23T02:04:35.161Z,1015.81
2018-04-23T02:05:35.101Z,1015.8
2018-04-23T02:06:35.101Z,1015.82
2018-04-23T02:07:35.126Z,1015.81
2018-04-23T02:08:35.106Z,1015.86
2018-04-23T02:09:35.123Z,1015.85
2018-04-23T02:10:35.105Z,1015.87
2018-04-23T02:11:35.111Z,1015.89
2018-04-23T02:12:35.128Z,1015.88
2018-04-23T02:13:35.096Z,1015.87
2018-04-23T02:14:35.122Z,1015.87
2018-04-23T02:15:35.100Z,1015.87
2018-04-23T02:16:35.131Z,1015.87
2018-04-23T02:17:35.233Z,1015.92
2018-04-23T02:18:35.116Z,1015.9
2018-04-23T02:19:35.155Z,1015.92
2018-04-23T02:20:35.121Z,1015.9
2018-04-23T02:21:35.114Z,1015.88
2018-04-23T02:22:35.097Z,1015.91
2018-04-23T02:23:35.116Z,1015.92
2018-04-23T02:24:35.260Z,1015.89
2018-04-23T02:25:35.273Z,1015.95
2018-04-23T02:26:35.113Z,1015.9
2018-04-23T02:27:35.105Z,1015.89
2018-04-23T02:28:35.097Z,1015.9
2018-04-23T02:29:35.091Z,1015.87
2018-04-23T02:30:35.164Z,1015.91
2018-04-23T02:31:35.129Z,1015.87
2018-04-23T02:32:35.113Z,1015.89
2018-04-23T02:33:35.112Z,1015.85
2018-04-23T02:34:35.128Z,1015.89
2018-04-23T02:35:35.039Z,1015.91
2018-04-23T02:36:35.490Z,1015.87
2018-04-23T02:37:35.112Z,1015.84
2018-04-23T02:38:35.112Z,1015.86
2018-04-23T02:39:35.154Z,1015.85
2018-04-23T02:40:35.127Z,1015.87
2018-04-23T02:41:35.143Z,1015.82
2018-04-23T02:42:35.107Z,1015.89
2018-04-23T02:43:35.143Z,1015.86
2018-04-23T02:44:35.087Z,1015.85
2018-04-23T02:45:35.077Z,1015.78
2018-04-23T02:46:35.129Z,1015.87
2018-04-23T02:47:35.106Z,1015.89
2018-04-23T02:48:35.101Z,1015.85
2018-04-23T02:49:35.094Z,1015.88
2018-04-23T02:50:35.096Z,1015.87
2018-04-23T02:51:35.187Z,1015.83
2018-04-23T02:52:35.113Z,1015.84
2018-04-23T02:53:35.132Z,1015.89
2018-04-23T02:54:35.092Z,1015.87
2018-04-23T02:55:35.081Z,1015.94
2018-04-23T02:56:35.110Z,1015.9
2018-04-23T02:57:35.080Z,1015.92
2018-04-23T02:58:35.154Z,1015.91
2018-04-23T02:59:35.085Z,1015.89
2018-04-23T03:00:35.126Z,1015.92
2018-04-23T03:01:35.256Z,1015.89
2018-04-23T03:02:35.258Z,1015.87
2018-04-23T03:03:35.166Z,1015.88
2018-04-23T03:04:35.151Z,1015.81
2018-04-23T03:05:35.094Z,1015.84
2018-04-23T03:06:35.107Z,1015.82
2018-04-23T03:07:35.078Z,1015.86
2018-04-23T03:08:35.083Z,1015.83
2018-04-23T03:09:35.075Z,1015.82
2018-04-23T03:10:35.074Z,1015.8
2018-04-23T03:11:35.078Z,1015.79
2018-04-23T03:12:35.070Z,1015.77
2018-04-23T03:13:35.104Z,1015.82
2018-04-23T03:14:35.077Z,1015.77
2018-04-23T03:15:35.068Z,1015.76
2018-04-23T03:16:35.069Z,1015.72
2018-04-23T03:17:35.153Z,1015.7
2018-04-23T03:18:35.072Z,1015.73
2018-04-23T03:19:35.087Z,1015.7
2018-04-23T03:20:35.105Z,1015.68
2018-04-23T03:21:35.075Z,1015.67
2018-04-23T03:22:35.079Z,1015.7
2018-04-23T03:23:35.081Z,1015.72
2018-04-23T03:24:35.099Z,1015.69
2018-04-23T03:25:35.072Z,1015.7
2018-04-23T03:26:35.105Z,1015.68
2018-04-23T03:27:35.072Z,1015.71
2018-04-23T03:28:35.071Z,1015.69
2018-04-23T03:29:35.062Z,1015.71
2018-04-23T03:30:35.092Z,1015.7
2018-04-23T03:31:35.093Z,1015.7
2018-04-23T03:32:35.089Z,1015.68
2018-04-23T03:33:35.071Z,1015.69
2018-04-23T03:34:35.090Z,1015.72
2018-04-23T03:35:35.087Z,1015.68
2018-04-23T03:36:35.390Z,1015.69
2018-04-23T03:37:35.078Z,1015.67
2018-04-23T03:38:35.067Z,1015.64
2018-04-23T03:39:35.071Z,1015.67
2018-04-23T03:40:35.108Z,1015.63
2018-04-23T03:41:35.078Z,1015.67
2018-04-23T03:42:35.066Z,1015.65
2018-04-23T03:43:35.063Z,1015.67
2018-04-23T03:44:35.068Z,1015.68
2018-04-23T03:45:35.075Z,1015.74
2018-04-23T03:46:35.055Z,1015.74
2018-04-23T03:47:35.109Z,1015.73
2018-04-23T03:48:35.159Z,1015.79
2018-04-23T03:49:35.069Z,1015.78
2018-04-23T03:50:35.149Z,1015.73
2018-04-23T03:51:35.117Z,1015.78
2018-04-23T03:52:35.084Z,1015.81
2018-04-23T03:53:35.047Z,1015.81
2018-04-23T03:54:35.068Z,1015.77
2018-04-23T03:55:35.117Z,1015.76
2018-04-23T03:56:35.421Z,1015.79
2018-04-23T03:57:35.056Z,1015.75
2018-04-23T03:58:35.223Z,1015.75
2018-04-23T03:59:35.046Z,1015.76
2018-04-23T04:00:35.084Z,1015.73
2018-04-23T04:01:35.136Z,1015.76
2018-04-23T04:02:35.071Z,1015.75
2018-04-23T04:03:35.051Z,1015.73
2018-04-23T04:04:35.089Z,1015.75
2018-04-23T04:05:35.044Z,1015.74
2018-04-23T04:06:35.067Z,1015.74
2018-04-23T04:07:35.072Z,1015.7
2018-04-23T04:08:35.064Z,1015.72
2018-04-23T04:09:35.101Z,1015.74
2018-04-23T04:10:35.423Z,1015.72
2018-04-23T04:11:35.043Z,1015.73
2018-04-23T04:12:35.077Z,1015.74
2018-04-23T04:13:35.058Z,1015.75
2018-04-23T04:14:35.053Z,1015.78
2018-04-23T04:15:35.140Z,1015.73
2018-04-23T04:16:35.216Z,1015.73
2018-04-23T04:17:35.084Z,1015.73
2018-04-23T04:18:35.062Z,1015.75
2018-04-23T04:19:35.077Z,1015.8
2018-04-23T04:20:35.079Z,1015.81
2018-04-23T04:21:35.052Z,1015.81
2018-04-23T04:22:35.044Z,1015.79
2018-04-23T04:23:35.183Z,1015.75
2018-04-23T04:24:35.497Z,1015.77
2018-04-23T04:25:35.053Z,1015.81
2018-04-23T04:26:35.041Z,1015.8
2018-04-23T04:27:35.043Z,1015.83
2018-04-23T04:28:35.072Z,1015.81
2018-04-23T04:29:35.064Z,1015.77
2018-04-23T04:30:35.099Z,1015.81
2018-04-23T04:31:35.092Z,1015.81
2018-04-23T04:32:35.115Z,1015.82
2018-04-23T04:33:35.064Z,1015.83
2018-04-23T04:34:35.057Z,1015.81
2018-04-23T04:35:35.277Z,1015.8
2018-04-23T04:36:35.072Z,1015.83
2018-04-23T04:37:35.059Z,1015.8
2018-04-23T04:38:35.053Z,1015.8
2018-04-23T04:39:35.044Z,1015.85
2018-04-23T04:40:35.052Z,1015.83
2018-04-23T04:41:35.167Z,1015.84
2018-04-23T04:42:35.043Z,1015.88
2018-04-23T04:43:35.042Z,1015.91
2018-04-23T04:44:35.042Z,1015.89
2018-04-23T04:45:35.257Z,1015.92
2018-04-23T04:46:35.066Z,1015.91
2018-04-23T04:47:35.032Z,1015.91
2018-04-23T04:48:35.031Z,1015.92
2018-04-23T04:49:35.029Z,1015.95
2018-04-23T04:50:35.043Z,1015.93
2018-04-23T04:51:35.076Z,1015.98
2018-04-23T04:52:35.032Z,1015.94
2018-04-23T04:53:35.058Z,1015.93
2018-04-23T04:54:35.098Z,1015.92
2018-04-23T04:55:35.055Z,1015.92
2018-04-23T04:56:35.051Z,1015.95
2018-04-23T04:57:35.040Z,1015.93
2018-04-23T04:58:35.043Z,1015.97
2018-04-23T04:59:35.045Z,1015.94
2018-04-23T05:00:35.049Z,1015.93
2018-04-23T05:01:35.112Z,1015.92
2018-04-23T05:02:35.026Z,1015.94
2018-04-23T05:03:35.014Z,1015.88
2018-04-23T05:04:35.058Z,1015.92
2018-04-23T05:05:35.026Z,1015.93
2018-04-23T05:06:35.031Z,1015.88
2018-04-23T05:07:35.038Z,1015.91
2018-04-23T05:08:35.203Z,1015.94
2018-04-23T05:09:35.031Z,1015.98
2018-04-23T05:10:35.183Z,1016.01
2018-04-23T05:11:35.162Z,1016.04
2018-04-23T05:12:35.039Z,1016.06
2018-04-23T05:13:35.122Z,1016.06
2018-04-23T05:14:35.252Z,1016.1
2018-04-23T05:15:35.063Z,1016.1
2018-04-23T05:16:35.078Z,1016.15
2018-04-23T05:17:35.034Z,1016.1
2018-04-23T05:18:35.046Z,1016.12
2018-04-23T05:19:35.243Z,1016.12
2018-04-23T05:20:35.039Z,1016.13
2018-04-23T05:21:35.056Z,1016.13
2018-04-23T05:22:35.042Z,1016.16
2018-04-23T05:23:35.083Z,1016.17
2018-04-23T05:24:35.053Z,1016.18
2018-04-23T05:25:35.154Z,1016.14
2018-04-23T05:26:35.057Z,1016.16
2018-04-23T05:27:35.084Z,1016.17
2018-04-23T05:28:35.081Z,1016.12
2018-04-23T05:29:35.090Z,1016.11
2018-04-23T05:30:35.084Z,1016.1
2018-04-23T05:31:35.053Z,1016.08
2018-04-23T05:32:35.066Z,1016.09
2018-04-23T05:33:35.208Z,1016.11
2018-04-23T05:34:35.061Z,1016.08
2018-04-23T05:35:35.079Z,1016.08
2018-04-23T05:36:35.046Z,1016.09
2018-04-23T05:37:35.188Z,1016.06
2018-04-23T05:38:35.213Z,1016.05
2018-04-23T05:39:35.083Z,1016.07
2018-04-23T05:40:35.143Z,1016.1
2018-04-23T05:41:35.045Z,1016.14
2018-04-23T05:42:35.094Z,1016.16
2018-04-23T05:43:35.052Z,1016.19
2018-04-23T05:44:35.103Z,1016.19
2018-04-23T05:45:35.092Z,1016.22
2018-04-23T05:46:35.064Z,1016.19
2018-04-23T05:47:35.077Z,1016.17
2018-04-23T05:48:35.055Z,1016.2
2018-04-23T05:49:35.065Z,1016.24
2018-04-23T05:50:35.082Z,1016.19
2018-04-23T05:51:35.057Z,1016.26
2018-04-23T05:52:35.166Z,1016.31
2018-04-23T05:53:35.075Z,1016.3
2018-04-23T05:54:35.096Z,1016.34
2018-04-23T05:55:35.061Z,1016.38
2018-04-23T05:56:35.100Z,1016.39
2018-04-23T05:57:35.049Z,1016.42
2018-04-23T05:58:35.057Z,1016.47
2018-04-23T05:59:35.062Z,1016.46
2018-04-23T06:00:35.056Z,1016.5
2018-04-23T06:01:35.067Z,1016.53
2018-04-23T06:02:35.324Z,1016.63
2018-04-23T06:03:35.276Z,1016.71
2018-04-23T06:04:35.078Z,1016.82
2018-04-23T06:05:35.051Z,1016.85
2018-04-23T06:06:35.057Z,1016.95
2018-04-23T06:07:35.199Z,1016.99
2018-04-23T06:08:35.091Z,1016.98
2018-04-23T06:09:35.098Z,1017.05
2018-04-23T06:10:35.073Z,1017.03
2018-04-23T06:11:35.094Z,1017.12
2018-04-23T06:12:35.106Z,1017.03
2018-04-23T06:13:35.056Z,1017.03
2018-04-23T06:14:35.072Z,1017.1
2018-04-23T06:15:35.125Z,1017.11
2018-04-23T06:16:35.098Z,1017.15
2018-04-23T06:17:35.484Z,1017.19
2018-04-23T06:18:35.193Z,1017.25
2018-04-23T06:19:35.109Z,1017.31
2018-04-23T06:20:35.089Z,1017.32
2018-04-23T06:21:35.089Z,1017.32
2018-04-23T06:22:35.409Z,1017.33
2018-04-23T06:23:35.073Z,1017.3
2018-04-23T06:24:35.202Z,1017.27
2018-04-23T06:25:35.072Z,1017.26
2018-04-23T06:26:35.069Z,1017.15
2018-04-23T06:27:35.095Z,1017.17
2018-04-23T06:28:35.114Z,1017.18
2018-04-23T06:29:35.091Z,1017.16
2018-04-23T06:30:35.076Z,1017.15
2018-04-23T06:31:35.072Z,1017.14
2018-04-23T06:32:35.113Z,1017.18
2018-04-23T06:33:35.079Z,1017.2
2018-04-23T06:34:35.120Z,1017.22
2018-04-23T06:35:35.119Z,1017.24
2018-04-23T06:36:35.310Z,1017.26
2018-04-23T06:37:35.084Z,1017.23
2018-04-23T06:38:35.080Z,1017.24
2018-04-23T06:39:35.126Z,1017.19
2018-04-23T06:40:35.075Z,1017.17
2018-04-23T06:41:35.243Z,1017.24
2018-04-23T06:42:35.126Z,1017.42
2018-04-23T06:43:35.172Z,1017.42
2018-04-23T06:44:35.112Z,1017.39
2018-04-23T06:45:35.117Z,1017.47
2018-04-23T06:46:35.107Z,1017.4
2018-04-23T06:47:35.091Z,1017.39
2018-04-23T06:48:35.091Z,1017.4
2018-04-23T06:49:35.090Z,1017.41
2018-04-23T06:50:35.087Z,1017.43
2018-04-23T06:51:35.116Z,1017.38
2018-04-23T06:52:35.102Z,1017.37
2018-04-23T06:53:35.228Z,1017.41
2018-04-23T06:54:35.418Z,1017.4
2018-04-23T06:55:35.136Z,1017.43
2018-04-23T06:56:35.099Z,1017.45
2018-04-23T06:57:35.096Z,1017.48
2018-04-23T06:58:35.094Z,1017.57
2018-04-23T06:59:35.138Z,1017.6
2018-04-23T07:00:35.117Z,1017.63
2018-04-23T07:01:35.097Z,1017.65
2018-04-23T07:02:35.087Z,1017.62
2018-04-23T07:03:35.115Z,1017.58
2018-04-23T07:04:35.146Z,1017.55
2018-04-23T07:05:35.088Z,1017.51
2018-04-23T07:06:35.095Z,1017.49
2018-04-23T07:07:35.092Z,1017.48
2018-04-23T07:08:35.111Z,1017.45
2018-04-23T07:09:35.107Z,1017.43
2018-04-23T07:10:35.116Z,1017.41
2018-04-23T07:11:35.094Z,1017.42
2018-04-23T07:12:35.087Z,1017.39
2018-04-23T07:13:35.083Z,1017.43
2018-04-23T07:14:35.092Z,1017.45
2018-04-23T07:15:35.126Z,1017.5
2018-04-23T07:16:35.218Z,1017.56
2018-04-23T07:17:35.121Z,1017.67
2018-04-23T07:18:35.094Z,1017.73
2018-04-23T07:19:35.104Z,1017.75
2018-04-23T07:20:35.162Z,1017.76
2018-04-23T07:21:35.141Z,1017.77
2018-04-23T07:22:35.211Z,1017.77
2018-04-23T07:23:35.093Z,1017.76
2018-04-23T07:24:35.142Z,1017.75
2018-04-23T07:25:35.129Z,1017.73
2018-04-23T07:26:35.128Z,1017.74
2018-04-23T07:27:35.123Z,1017.7
2018-04-23T07:28:35.087Z,1017.71
2018-04-23T07:29:35.110Z,1017.78
2018-04-23T07:30:35.471Z,1017.77
2018-04-23T07:31:35.114Z,1017.88
2018-04-23T07:32:35.121Z,1017.84
2018-04-23T07:33:35.151Z,1017.88
2018-04-23T07:34:35.126Z,1017.92
2018-04-23T07:35:35.136Z,1017.95
2018-04-23T07:36:35.141Z,1017.97
2018-04-23T07:37:35.102Z,1017.96
2018-04-23T07:38:35.116Z,1017.95
2018-04-23T07:39:35.114Z,1017.96
2018-04-23T07:40:35.141Z,1018.02
2018-04-23T07:41:35.142Z,1018.07
2018-04-23T07:42:35.120Z,1018.14
2018-04-23T07:43:35.105Z,1018.17
2018-04-23T07:44:35.116Z,1018.21
2018-04-23T07:45:35.237Z,1018.22
2018-04-23T07:46:35.106Z,1018.31
2018-04-23T07:47:35.198Z,1018.32
2018-04-23T07:48:35.198Z,1018.38
2018-04-23T07:49:35.103Z,1018.34
2018-04-23T07:50:36.466Z,1018.43
2018-04-23T07:51:35.130Z,1018.49
2018-04-23T07:52:35.119Z,1018.5
2018-04-23T07:53:35.119Z,1018.51
2018-04-23T07:54:35.121Z,1018.56
2018-04-23T07:55:35.112Z,1018.56
2018-04-23T07:56:35.158Z,1018.59
2018-04-23T07:57:35.138Z,1018.57
2018-04-23T07:58:35.149Z,1018.59
2018-04-23T07:59:35.181Z,1018.53
2018-04-23T08:00:35.125Z,1018.44
2018-04-23T08:01:35.154Z,1018.43
2018-04-23T08:02:35.123Z,1018.41
2018-04-23T08:03:35.139Z,1018.39
2018-04-23T08:04:35.176Z,1018.39
2018-04-23T08:05:35.145Z,1018.37
2018-04-23T08:06:35.197Z,1018.43
2018-04-23T08:07:35.130Z,1018.42
2018-04-23T08:08:35.127Z,1018.42
2018-04-23T08:09:35.135Z,1018.45
2018-04-23T08:10:35.190Z,1018.45
2018-04-23T08:11:35.152Z,1018.47
2018-04-23T08:12:35.443Z,1018.48
2018-04-23T08:13:35.151Z,1018.55
2018-04-23T08:14:35.129Z,1018.51
2018-04-23T08:15:35.147Z,1018.54
2018-04-23T08:16:35.139Z,1018.54
2018-04-23T08:17:35.180Z,1018.52
2018-04-23T08:18:35.129Z,1018.52
2018-04-23T08:19:35.173Z,1018.54
2018-04-23T08:20:35.137Z,1018.57
2018-04-23T08:21:35.140Z,1018.58
2018-04-23T08:22:35.332Z,1018.65
2018-04-23T08:23:35.164Z,1018.61
2018-04-23T08:24:35.174Z,1018.67
2018-04-23T08:25:35.126Z,1018.67
2018-04-23T08:26:35.934Z,1018.71
2018-04-23T08:27:35.175Z,1018.69
2018-04-23T08:28:35.143Z,1018.69
2018-04-23T08:29:35.150Z,1018.74
2018-04-23T08:30:35.181Z,1018.77
2018-04-23T08:31:35.140Z,1018.78
2018-04-23T08:32:35.147Z,1018.87
2018-04-23T08:33:35.196Z,1018.85
2018-04-23T08:34:35.174Z,1018.85
2018-04-23T08:35:35.254Z,1018.82
2018-04-23T08:36:35.164Z,1018.83
2018-04-23T08:37:35.265Z,1018.8
2018-04-23T08:38:35.216Z,1018.81
2018-04-23T08:39:35.180Z,1018.79
2018-04-23T08:40:35.159Z,1018.77
2018-04-23T08:41:35.155Z,1018.81
2018-04-23T08:42:35.147Z,1018.78
2018-04-23T08:43:35.198Z,1018.81
2018-04-23T08:44:35.157Z,1018.78
2018-04-23T08:45:35.150Z,1018.75
2018-04-23T08:46:35.165Z,1018.72
2018-04-23T08:47:35.161Z,1018.72
2018-04-23T08:48:35.167Z,1018.73
2018-04-23T08:49:35.250Z,1018.76
2018-04-23T08:50:35.153Z,1018.73
2018-04-23T08:51:35.143Z,1018.72
2018-04-23T08:52:35.163Z,1018.74
2018-04-23T08:53:35.206Z,1018.72
2018-04-23T08:54:35.336Z,1018.75
2018-04-23T08:55:35.138Z,1018.74
2018-04-23T08:56:35.231Z,1018.74
2018-04-23T08:57:35.311Z,1018.75
2018-04-23T08:58:35.158Z,1018.76
2018-04-23T08:59:35.276Z,1018.79
2018-04-23T09:00:35.177Z,1018.83
2018-04-23T09:01:35.163Z,1018.84
2018-04-23T09:02:35.190Z,1018.83
2018-04-23T09:03:35.209Z,1018.84
2018-04-23T09:04:35.339Z,1018.82
2018-04-23T09:05:35.173Z,1018.82
2018-04-23T09:06:35.172Z,1018.83
2018-04-23T09:07:35.164Z,1018.81
2018-04-23T09:08:35.636Z,1018.8
2018-04-23T09:09:35.294Z,1018.71
2018-04-23T09:10:35.164Z,1018.7
2018-04-23T09:11:35.197Z,1018.68
2018-04-23T09:12:35.174Z,1018.63
2018-04-23T09:13:35.277Z,1018.63
2018-04-23T09:14:35.199Z,1018.63
2018-04-23T09:15:35.165Z,1018.64
2018-04-23T09:16:35.536Z,1018.65
2018-04-23T09:17:35.228Z,1018.64
2018-04-23T09:18:35.185Z,1018.63
2018-04-23T09:19:35.170Z,1018.6
2018-04-23T09:20:35.163Z,1018.66
2018-04-23T09:21:35.199Z,1018.68
2018-04-23T09:22:35.173Z,1018.68
2018-04-23T09:23:35.202Z,1018.68
2018-04-23T09:24:35.181Z,1018.68
2018-04-23T09:25:35.166Z,1018.64
2018-04-23T09:26:35.186Z,1018.64
2018-04-23T09:27:35.187Z,1018.64
2018-04-23T09:28:35.209Z,1018.66
2018-04-23T09:29:35.186Z,1018.71
2018-04-23T09:30:35.173Z,1018.72
2018-04-23T09:31:35.363Z,1018.7
2018-04-23T09:32:35.177Z,1018.66
2018-04-23T09:33:35.185Z,1018.63
2018-04-23T09:34:35.192Z,1018.63
2018-04-23T09:35:35.197Z,1018.64
2018-04-23T09:36:35.492Z,1018.6
2018-04-23T09:37:35.201Z,1018.61
2018-04-23T09:38:35.161Z,1018.6
2018-04-23T09:39:35.210Z,1018.57
2018-04-23T09:40:35.165Z,1018.56
2018-04-23T09:41:35.188Z,1018.52
2018-04-23T09:42:35.208Z,1018.52
2018-04-23T09:43:35.221Z,1018.57
2018-04-23T09:44:35.452Z,1018.56
2018-04-23T09:45:35.206Z,1018.56
2018-04-23T09:46:35.214Z,1018.55
2018-04-23T09:47:35.247Z,1018.55
2018-04-23T09:48:35.180Z,1018.59
2018-04-23T09:49:35.229Z,1018.55
2018-04-23T09:50:35.196Z,1018.54
2018-04-23T09:51:35.172Z,1018.54
2018-04-23T09:52:35.206Z,1018.55
2018-04-23T09:53:35.216Z,1018.51
2018-04-23T09:54:35.233Z,1018.46
2018-04-23T09:55:35.201Z,1018.46
2018-04-23T09:56:35.190Z,1018.49
2018-04-23T09:57:35.211Z,1018.46
2018-04-23T09:58:35.427Z,1018.44
2018-04-23T09:59:35.316Z,1018.45
2018-04-23T10:00:35.208Z,1018.47
2018-04-23T10:01:35.215Z,1018.43
2018-04-23T10:02:35.210Z,1018.42
2018-04-23T10:03:35.323Z,1018.43
2018-04-23T10:04:35.244Z,1018.42
2018-04-23T10:05:35.254Z,1018.43
2018-04-23T10:06:35.209Z,1018.49
2018-04-23T10:07:35.288Z,1018.48
2018-04-23T10:08:35.235Z,1018.46
2018-04-23T10:09:35.217Z,1018.49
2018-04-23T10:10:35.240Z,1018.51
2018-04-23T10:11:35.346Z,1018.54
2018-04-23T10:12:35.213Z,1018.53
2018-04-23T10:13:35.226Z,1018.58
2018-04-23T10:14:35.212Z,1018.55
2018-04-23T10:15:35.228Z,1018.53
2018-04-23T10:16:35.229Z,1018.61
2018-04-23T10:17:35.252Z,1018.56
2018-04-23T10:18:35.604Z,1018.58
2018-04-23T10:19:35.311Z,1018.56
2018-04-23T10:20:35.368Z,1018.51
2018-04-23T10:21:35.221Z,1018.53
2018-04-23T10:22:35.227Z,1018.49
2018-04-23T10:23:35.223Z,1018.5
2018-04-23T10:24:35.215Z,1018.47
2018-04-23T10:25:35.295Z,1018.5
2018-04-23T10:26:35.254Z,1018.49
2018-04-23T10:27:35.220Z,1018.49
2018-04-23T10:28:35.263Z,1018.52
2018-04-23T10:29:35.216Z,1018.46
2018-04-23T10:30:35.253Z,1018.48
2018-04-23T10:31:35.319Z,1018.53
2018-04-23T10:32:35.227Z,1018.52
2018-04-23T10:33:35.213Z,1018.52
2018-04-23T10:34:35.238Z,1018.5
2018-04-23T10:35:35.619Z,1018.5
2018-04-23T10:36:35.218Z,1018.53
2018-04-23T10:37:35.253Z,1018.58
2018-04-23T10:38:35.239Z,1018.52
2018-04-23T10:39:35.201Z,1018.54
2018-04-23T10:40:35.283Z,1018.56
2018-04-23T10:41:35.272Z,1018.57
2018-04-23T10:42:35.265Z,1018.54
2018-04-23T10:43:35.247Z,1018.52
2018-04-23T10:44:35.207Z,1018.51
2018-04-23T10:45:35.689Z,1018.52
2018-04-23T10:46:35.246Z,1018.5
2018-04-23T10:47:35.254Z,1018.52
2018-04-23T10:48:35.381Z,1018.53
2018-04-23T10:49:35.250Z,1018.48
2018-04-23T10:50:35.291Z,1018.51
2018-04-23T10:51:35.226Z,1018.52
2018-04-23T10:52:35.239Z,1018.51
2018-04-23T10:53:35.277Z,1018.52
2018-04-23T10:54:35.273Z,1018.56
2018-04-23T10:55:35.268Z,1018.55
2018-04-23T10:56:35.237Z,1018.61
2018-04-23T10:57:35.252Z,1018.59
2018-04-23T10:58:35.243Z,1018.59
2018-04-23T10:59:35.261Z,1018.58
2018-04-23T11:00:35.236Z,1018.59
2018-04-23T11:01:35.267Z,1018.58
2018-04-23T11:02:35.306Z,1018.59
2018-04-23T11:03:35.263Z,1018.58
2018-04-23T11:04:35.244Z,1018.57
2018-04-23T11:05:35.272Z,1018.58
2018-04-23T11:06:35.278Z,1018.58
2018-04-23T11:07:35.245Z,1018.58
2018-04-23T11:08:35.234Z,1018.57
2018-04-23T11:09:35.400Z,1018.54
2018-04-23T11:10:35.349Z,1018.59
2018-04-23T11:11:35.265Z,1018.53
2018-04-23T11:12:35.265Z,1018.52
2018-04-23T11:13:35.281Z,1018.51
2018-04-23T11:14:35.263Z,1018.52
2018-04-23T11:15:35.384Z,1018.55
2018-04-23T11:16:35.297Z,1018.51
2018-04-23T11:17:35.284Z,1018.54
2018-04-23T11:18:35.247Z,1018.5
2018-04-23T11:19:35.264Z,1018.52
2018-04-23T11:20:35.260Z,1018.53
2018-04-23T11:21:35.240Z,1018.54
2018-04-23T11:22:35.293Z,1018.53
2018-04-23T11:23:35.339Z,1018.54
2018-04-23T11:24:35.252Z,1018.51
2018-04-23T11:25:35.264Z,1018.55
2018-04-23T11:26:35.312Z,1018.52
2018-04-23T11:27:35.281Z,1018.57
2018-04-23T11:28:35.398Z,1018.5
2018-04-23T11:29:35.240Z,1018.54
2018-04-23T11:30:35.287Z,1018.51
2018-04-23T11:31:35.405Z,1018.57
2018-04-23T11:32:35.593Z,1018.56
2018-04-23T11:33:35.294Z,1018.54
2018-04-23T11:34:35.255Z,1018.54
2018-04-23T11:35:35.252Z,1018.56
2018-04-23T11:36:35.274Z,1018.56
2018-04-23T11:37:35.307Z,1018.59
2018-04-23T11:38:35.282Z,1018.56
2018-04-23T11:39:35.268Z,1018.56
2018-04-23T11:40:35.251Z,1018.52
2018-04-23T11:41:35.281Z,1018.45
2018-04-23T11:42:35.289Z,1018.46
2018-04-23T11:43:35.262Z,1018.43
2018-04-23T11:44:35.254Z,1018.45
2018-04-23T11:45:35.285Z,1018.43
2018-04-23T11:46:35.369Z,1018.44
2018-04-23T11:47:35.264Z,1018.44
2018-04-23T11:48:35.279Z,1018.4
2018-04-23T11:49:35.288Z,1018.43
2018-04-23T11:50:35.274Z,1018.43
2018-04-23T11:51:35.333Z,1018.42
2018-04-23T11:52:35.292Z,1018.37
2018-04-23T11:53:35.299Z,1018.38
2018-04-23T11:54:35.296Z,1018.39
2018-04-23T11:55:35.264Z,1018.36
2018-04-23T11:56:35.268Z,1018.36
2018-04-23T11:57:35.306Z,1018.39
2018-04-23T11:58:35.438Z,1018.43
2018-04-23T11:59:35.252Z,1018.42
2018-04-23T12:00:35.262Z,1018.49
2018-04-23T12:01:35.280Z,1018.49
2018-04-23T12:02:35.269Z,1018.51
2018-04-23T12:03:35.293Z,1018.51
2018-04-23T12:04:35.423Z,1018.49
2018-04-23T12:05:35.384Z,1018.5
2018-04-23T12:06:35.290Z,1018.46
2018-04-23T12:07:35.294Z,1018.43